createdAt,value
2023-01-11T04:47:20.125Z,99.50
2023-01-11T04:49:47.518Z,99.20
2023-01-11T04:52:15.601Z,99.40
2023-01-11T04:54:42.613Z,99.00
2023-01-11T04:57:13.849Z,98.50
2023-01-11T04:59:41.288Z,99.70
2023-01-11T05:02:08.308Z,99.70
2023-01-11T05:04:35.332Z,99.90
2023-01-11T05:07:02.616Z,99.60
2023-01-11T05:09:29.685Z,99.90
2023-01-11T05:11:56.694Z,99.20
2023-01-11T05:14:23.788Z,99.10
2023-01-11T05:16:51.000Z,98.80
2023-01-11T05:19:18.377Z,99.60
2023-01-11T05:21:45.504Z,99.80
2023-01-11T05:24:13.605Z,99.10
2023-01-11T05:26:41.535Z,99.10
2023-01-11T05:32:27.917Z,99.20
2023-01-11T05:34:54.970Z,99.10
2023-01-11T05:37:22.052Z,99.20
2023-01-11T05:39:49.050Z,99.40
2023-01-11T05:42:16.954Z,99.40
2023-01-11T05:45:02.855Z,99.40
2023-01-11T05:47:29.921Z,99.50
2023-01-11T05:49:57.012Z,99.40
2023-01-11T05:52:24.102Z,99.90
2023-01-11T05:54:51.123Z,99.40
2023-01-11T05:57:18.172Z,99.90
2023-01-11T05:59:45.288Z,99.60
2023-01-11T06:02:12.556Z,99.90
2023-01-11T06:04:39.654Z,99.90
2023-01-11T06:07:09.899Z,99.90
2023-01-11T06:09:36.909Z,99.80
2023-01-11T06:12:03.933Z,99.60
2023-01-11T06:14:30.912Z,99.90
2023-01-11T06:16:58.009Z,99.90
2023-01-11T06:19:25.044Z,99.90
2023-01-11T06:21:51.964Z,99.90
2023-01-11T06:24:19.068Z,99.90
2023-01-11T06:26:46.099Z,99.90
2023-01-11T06:29:14.752Z,99.90
2023-01-11T06:31:41.762Z,99.90
2023-01-11T06:34:09.052Z,99.90
2023-01-11T06:36:37.852Z,99.90
2023-01-11T06:39:05.356Z,99.90
2023-01-11T06:41:32.304Z,99.90
2023-01-11T06:43:59.246Z,99.90
2023-01-11T06:46:28.919Z,99.90
2023-01-11T06:48:56.129Z,99.90
2023-01-11T06:51:23.291Z,99.90
2023-01-11T06:53:50.317Z,99.90
2023-01-11T06:56:19.036Z,99.90
2023-01-11T06:58:47.587Z,99.90
2023-01-11T07:01:16.114Z,99.90
2023-01-11T07:03:43.200Z,99.90
2023-01-11T07:06:10.190Z,99.90
2023-01-11T07:08:38.283Z,99.90
2023-01-11T07:11:05.470Z,99.90
2023-01-11T07:13:32.506Z,99.90
2023-01-11T07:15:59.621Z,99.90
2023-01-11T07:18:26.654Z,99.90
2023-01-11T07:20:53.628Z,99.90
2023-01-11T07:23:20.701Z,99.90
2023-01-11T07:25:48.463Z,99.90
2023-01-11T07:28:15.383Z,99.90
2023-01-11T07:30:56.564Z,99.90
2023-01-11T07:33:25.128Z,99.90
2023-01-11T07:35:52.136Z,99.90
2023-01-11T07:38:19.215Z,99.90
2023-01-11T07:40:46.270Z,99.90
2023-01-11T07:43:18.137Z,99.90
2023-01-11T07:45:48.078Z,99.90
2023-01-11T07:48:16.597Z,99.90
2023-01-11T07:50:45.273Z,99.90
2023-01-11T07:53:12.977Z,99.90
2023-01-11T07:55:40.526Z,99.90
2023-01-11T07:58:16.701Z,99.90
2023-01-11T08:00:44.173Z,99.60
2023-01-11T08:03:11.294Z,99.90
2023-01-11T08:05:38.480Z,99.90
2023-01-11T08:08:05.539Z,99.90
2023-01-11T08:10:32.657Z,99.90
2023-01-11T08:13:18.544Z,99.90
2023-01-11T08:15:45.783Z,99.90
2023-01-11T08:18:12.809Z,99.90
2023-01-11T08:20:40.160Z,99.90
2023-01-11T08:23:08.325Z,99.90
2023-01-11T08:25:35.548Z,99.90
2023-01-11T08:28:04.204Z,99.90
2023-01-11T08:30:34.119Z,99.90
2023-01-11T08:33:01.443Z,99.60
2023-01-11T08:35:28.422Z,99.90
2023-01-11T08:37:55.443Z,99.90
2023-01-11T08:40:24.189Z,99.90
2023-01-11T08:43:00.960Z,99.70
2023-01-11T08:45:32.439Z,99.90
2023-01-11T08:47:59.978Z,99.90
2023-01-11T08:50:27.033Z,99.90
2023-01-11T08:52:54.089Z,99.90
2023-01-11T08:55:21.094Z,99.80
2023-01-11T08:57:48.090Z,99.00
2023-01-11T09:00:15.629Z,99.50
2023-01-11T09:02:45.149Z,99.60
2023-01-11T09:05:12.265Z,99.70
2023-01-11T09:07:39.518Z,99.30
2023-01-11T09:10:06.696Z,99.60
2023-01-11T09:12:33.735Z,99.60
2023-01-11T09:15:00.736Z,99.90
2023-01-11T09:17:28.195Z,99.80
2023-01-11T09:19:55.225Z,99.90
2023-01-11T09:22:22.289Z,99.30
2023-01-11T09:24:49.716Z,99.90
2023-01-11T09:27:16.918Z,99.80
2023-01-11T09:29:46.969Z,99.90
2023-01-11T09:32:14.015Z,99.80
2023-01-11T09:34:42.918Z,99.40
2023-01-11T09:37:09.997Z,99.60
2023-01-11T09:39:39.090Z,99.90
2023-01-11T09:42:28.119Z,99.90
2023-01-11T09:44:57.351Z,99.70
2023-01-11T09:47:30.331Z,99.90
2023-01-11T09:49:58.583Z,99.90
2023-01-11T09:52:30.079Z,99.80
2023-01-11T09:54:58.347Z,99.90
2023-01-11T09:57:35.944Z,99.90
2023-01-11T10:00:10.555Z,99.90
2023-01-11T10:02:44.428Z,99.90
2023-01-11T10:05:31.081Z,99.90
2023-01-11T10:18:22.926Z,99.90
2023-01-11T10:18:30.857Z,99.90
2023-01-11T10:19:57.465Z,99.90
2023-01-11T10:22:39.168Z,99.70
2023-01-11T10:25:34.104Z,99.90
2023-01-11T10:28:13.152Z,99.90
2023-01-11T10:30:59.359Z,99.90
2023-01-11T10:33:42.805Z,99.90
2023-01-11T10:36:09.792Z,99.90
2023-01-11T10:38:41.097Z,99.90
2023-01-11T10:41:22.335Z,99.90
2023-01-11T10:43:54.627Z,99.90
2023-01-11T10:46:24.047Z,99.90
2023-01-11T10:48:57.524Z,99.90
2023-01-11T10:51:34.562Z,99.90
2023-01-11T10:57:01.761Z,99.90
2023-01-11T10:59:36.747Z,99.90
2023-01-11T11:02:12.955Z,99.90
2023-01-11T11:04:42.507Z,99.90
2023-01-11T11:07:25.516Z,99.90
2023-01-11T11:09:56.962Z,99.90
2023-01-11T11:12:28.271Z,99.90
2023-01-11T11:15:14.022Z,99.90
2023-01-11T11:17:44.355Z,99.90
2023-01-11T11:20:20.318Z,99.90
2023-01-11T11:22:54.315Z,99.90
2023-01-11T11:25:24.988Z,99.90
2023-01-11T11:27:55.409Z,99.90
2023-01-11T11:30:27.686Z,99.90
2023-01-11T11:32:57.474Z,99.90
2023-01-11T11:35:30.584Z,99.90
2023-01-11T11:37:57.549Z,99.90
2023-01-11T11:40:32.496Z,99.90
2023-01-11T11:43:17.427Z,99.90
2023-01-11T11:45:51.797Z,99.90
2023-01-11T11:48:19.051Z,99.90
2023-01-11T11:50:46.656Z,99.90
2023-01-11T11:53:29.277Z,99.90
2023-01-11T11:55:56.316Z,99.90
2023-01-11T11:58:24.705Z,99.90
2023-01-11T12:00:52.321Z,99.90
2023-01-11T12:03:19.443Z,99.90
2023-01-11T12:05:50.782Z,99.90
2023-01-11T12:08:18.016Z,99.90
2023-01-11T12:10:50.870Z,99.90
2023-01-11T12:13:35.275Z,99.90
2023-01-11T12:16:04.205Z,99.90
2023-01-11T12:18:38.367Z,99.90
2023-01-11T12:21:24.930Z,99.90
2023-01-11T12:24:07.807Z,99.90
2023-01-11T12:26:46.031Z,99.90
2023-01-11T12:29:28.476Z,99.90
2023-01-11T12:32:04.626Z,99.90
2023-01-11T12:34:50.384Z,99.90
2023-01-11T12:37:26.832Z,99.90
2023-01-11T12:40:12.701Z,99.90
2023-01-11T12:42:51.849Z,99.90
2023-01-11T12:45:37.697Z,99.90
2023-01-11T12:48:23.466Z,99.90
2023-01-11T12:50:59.826Z,99.90
2023-01-11T12:53:26.743Z,99.90
2023-01-11T12:55:56.947Z,99.90
2023-01-11T12:58:30.138Z,99.90
2023-01-11T13:01:03.292Z,99.90
2023-01-11T13:03:39.414Z,99.90
2023-01-11T13:06:14.184Z,99.90
2023-01-11T13:08:59.055Z,99.90
2023-01-11T13:11:35.518Z,99.90
2023-01-11T13:14:22.449Z,99.90
2023-01-11T13:17:12.455Z,99.90
2023-01-11T13:19:52.544Z,99.90
2023-01-11T13:22:20.959Z,99.90
2023-01-11T13:24:49.628Z,99.90
2023-01-11T13:27:22.408Z,99.90
2023-01-11T13:29:55.052Z,99.90
2023-01-11T13:32:23.562Z,99.90
2023-01-11T13:35:15.257Z,99.90
2023-01-11T13:38:11.787Z,99.90
2023-01-11T13:40:41.738Z,99.90
2023-01-11T13:43:08.898Z,99.90
2023-01-11T13:45:35.926Z,99.90
2023-01-11T13:48:16.610Z,99.90
2023-01-11T13:51:06.948Z,99.90
2023-01-11T13:53:36.934Z,99.90
2023-01-11T13:56:12.225Z,99.90
2023-01-11T13:58:50.378Z,99.90
2023-01-11T14:01:19.721Z,99.90
2023-01-11T14:03:46.855Z,99.90
2023-01-11T14:06:22.957Z,99.90
2023-01-11T14:09:00.447Z,99.90
2023-01-11T14:11:58.437Z,99.90
2023-01-11T14:14:37.234Z,99.90
2023-01-11T14:17:04.303Z,99.90
2023-01-11T14:19:37.027Z,99.90
2023-01-11T14:22:32.964Z,99.90
2023-01-11T14:25:03.911Z,99.90
2023-01-11T14:27:50.027Z,99.90
2023-01-11T14:33:23.638Z,99.90
2023-01-11T14:36:07.199Z,99.90
2023-01-11T14:38:40.631Z,99.90
2023-01-11T14:41:07.675Z,99.90
2023-01-11T14:43:40.902Z,99.90
2023-01-11T14:46:10.862Z,99.90
2023-01-11T14:48:44.087Z,99.90
2023-01-11T14:51:20.863Z,99.90
2023-01-11T14:53:52.640Z,99.90
2023-01-11T14:56:37.977Z,99.90
2023-01-11T14:59:06.227Z,99.90
2023-01-11T15:02:02.627Z,99.90
2023-01-11T15:04:37.830Z,99.90
2023-01-11T15:07:23.763Z,99.90
2023-01-11T15:13:05.440Z,99.90
2023-01-11T15:15:51.730Z,99.90
2023-01-11T15:18:20.416Z,99.90
2023-01-11T15:20:57.658Z,99.90
2023-01-11T15:23:24.796Z,99.90
2023-01-11T15:25:59.675Z,99.90
2023-01-11T15:28:38.774Z,99.90
2023-01-11T15:31:06.233Z,99.90
2023-01-11T15:33:46.855Z,99.90
2023-01-11T15:36:14.181Z,99.90
2023-01-11T15:38:52.182Z,99.90
2023-01-11T15:41:48.875Z,99.90
2023-01-11T15:44:15.977Z,99.90
2023-01-11T15:46:55.271Z,99.90
2023-01-11T15:49:39.817Z,99.90
2023-01-11T15:52:23.336Z,99.90
2023-01-11T15:55:05.877Z,99.90
2023-01-11T15:57:42.485Z,99.90
2023-01-11T16:00:15.674Z,99.90
2023-01-11T16:02:45.706Z,99.90
2023-01-11T16:05:14.737Z,99.90
2023-01-11T16:08:17.373Z,99.90
2023-01-11T16:10:44.348Z,99.90
2023-01-11T16:13:17.675Z,99.90
2023-01-11T16:16:02.726Z,99.90
2023-01-11T16:18:34.546Z,99.90
2023-01-11T16:21:06.812Z,99.90
2023-01-11T16:23:33.970Z,99.90
2023-01-11T16:26:01.332Z,99.90
2023-01-11T16:28:28.457Z,99.90
2023-01-11T16:30:56.592Z,99.90
2023-01-11T16:33:25.275Z,99.90
2023-01-11T16:36:05.324Z,99.90
2023-01-11T16:38:35.064Z,99.90
2023-01-11T16:41:02.293Z,99.90
2023-01-11T16:43:31.167Z,99.90
2023-01-11T16:45:58.500Z,99.90
2023-01-11T16:48:26.640Z,99.90
2023-01-11T16:51:07.257Z,99.90
2023-01-11T16:54:03.897Z,99.90
2023-01-11T16:56:31.451Z,99.90
2023-01-11T16:59:20.147Z,99.90
2023-01-11T17:01:55.148Z,99.90
2023-01-11T17:04:26.842Z,99.90
2023-01-11T17:06:53.885Z,99.90
2023-01-11T17:09:21.465Z,99.90
2023-01-11T17:11:50.428Z,99.90
2023-01-11T17:14:36.270Z,99.90
2023-01-11T17:17:05.329Z,99.90
2023-01-11T17:19:34.731Z,99.90
2023-01-11T17:22:01.874Z,99.90
2023-01-11T17:24:30.029Z,99.90
2023-01-11T17:26:59.522Z,99.90
2023-01-11T17:29:26.592Z,99.90
2023-01-11T17:32:06.043Z,99.90
2023-01-11T17:34:34.986Z,99.90
2023-01-11T17:37:03.728Z,99.90
2023-01-11T17:46:34.348Z,99.90
2023-01-11T17:49:02.476Z,99.90
2023-01-11T17:51:47.903Z,99.90
2023-01-11T17:54:32.417Z,99.90
2023-01-11T17:57:19.943Z,99.90
2023-01-11T17:59:52.910Z,99.90
2023-01-11T18:02:25.831Z,99.90
2023-01-11T18:08:20.049Z,99.90
2023-01-11T18:10:52.807Z,99.90
2023-01-11T18:13:22.754Z,99.90
2023-01-11T18:15:49.748Z,99.90
2023-01-11T18:18:52.032Z,99.90
2023-01-11T18:21:24.963Z,99.90
2023-01-11T18:24:10.075Z,99.90
2023-01-11T18:26:40.869Z,99.90
2023-01-11T18:29:26.390Z,99.90
2023-01-11T18:31:53.379Z,99.90
2023-01-11T18:34:20.400Z,99.90
2023-01-11T18:36:47.357Z,99.90
2023-01-11T18:39:14.250Z,99.90
2023-01-11T18:41:59.617Z,99.90
2023-01-11T18:44:28.518Z,99.90
2023-01-11T18:46:55.438Z,99.90
2023-01-11T18:49:22.362Z,99.90
2023-01-11T18:51:49.237Z,99.90
2023-01-11T18:54:16.700Z,99.90
2023-01-11T18:56:43.665Z,99.90
2023-01-11T18:59:10.573Z,99.90
2023-01-11T19:01:52.805Z,99.90
2023-01-11T19:04:23.256Z,99.90
2023-01-11T19:06:52.171Z,99.90
2023-01-11T19:09:19.139Z,99.90
2023-01-11T19:11:46.078Z,99.90
2023-01-11T19:14:13.017Z,99.90
2023-01-11T19:16:40.061Z,99.90
2023-01-11T19:19:07.005Z,99.90
2023-01-11T19:21:33.962Z,99.90
2023-01-11T19:24:00.848Z,99.90
2023-01-11T19:26:28.007Z,99.90
2023-01-11T19:28:54.880Z,99.90
2023-01-11T19:31:21.920Z,99.90
2023-01-11T19:33:48.837Z,99.90
2023-01-11T19:36:15.713Z,99.90
2023-01-11T19:38:42.654Z,99.90
2023-01-11T19:41:10.282Z,99.90
2023-01-11T19:43:44.596Z,99.90
2023-01-11T19:46:13.571Z,99.90
2023-01-11T19:48:40.644Z,99.90
2023-01-11T19:51:08.794Z,99.90
2023-01-11T19:53:35.908Z,99.90
2023-01-11T19:56:07.263Z,99.90
2023-01-11T19:58:36.433Z,99.90
2023-01-11T20:01:12.538Z,99.90
2023-01-11T20:03:42.786Z,99.90
2023-01-11T20:06:09.711Z,99.90
2023-01-11T20:08:38.399Z,99.90
2023-01-11T20:11:06.394Z,99.90
2023-01-11T20:13:33.647Z,99.90
2023-01-11T20:16:04.488Z,99.90
2023-01-11T20:18:31.476Z,99.90
2023-01-11T20:20:58.427Z,99.90
2023-01-11T20:23:26.312Z,99.90
2023-01-11T20:26:00.353Z,99.90
2023-01-11T20:28:27.406Z,99.90
2023-01-11T20:30:54.877Z,99.90
2023-01-11T20:33:21.825Z,99.90
2023-01-11T20:35:48.766Z,99.90
2023-01-11T20:38:15.682Z,99.90
2023-01-11T20:40:42.586Z,99.90
2023-01-11T20:43:11.042Z,99.90
2023-01-11T20:45:39.507Z,99.90
2023-01-11T20:48:07.132Z,99.90
2023-01-11T20:50:34.685Z,99.90
2023-01-11T20:53:02.065Z,99.90
2023-01-11T20:55:29.256Z,99.90
2023-01-11T20:57:58.047Z,99.90
2023-01-11T21:00:25.204Z,99.90
2023-01-11T21:02:52.276Z,99.90
2023-01-11T21:05:19.207Z,99.90
2023-01-11T21:07:47.861Z,99.90
2023-01-11T21:10:14.861Z,99.90
2023-01-11T21:12:41.791Z,99.90
2023-01-11T21:15:10.671Z,99.90
2023-01-11T21:17:37.845Z,99.90
2023-01-11T21:20:05.157Z,99.90
2023-01-11T21:22:32.080Z,99.90
2023-01-11T21:24:59.001Z,99.90
2023-01-11T21:27:25.907Z,99.90
2023-01-11T21:29:52.785Z,99.90
2023-01-11T21:32:19.731Z,99.90
2023-01-11T21:34:46.724Z,99.90
2023-01-11T21:37:13.635Z,99.90
2023-01-11T21:39:40.603Z,99.90
2023-01-11T21:42:07.631Z,99.90
2023-01-11T21:44:34.570Z,99.90
2023-01-11T21:47:02.502Z,99.90
2023-01-11T21:49:30.094Z,99.90
2023-01-11T21:51:57.230Z,99.90
2023-01-11T21:54:24.319Z,99.90
2023-01-11T21:56:51.236Z,99.90
2023-01-11T21:59:18.291Z,99.90
2023-01-11T22:01:45.922Z,99.90
2023-01-11T22:04:14.700Z,99.90
2023-01-11T22:06:42.941Z,99.90
2023-01-11T22:09:10.959Z,99.90
2023-01-11T22:11:38.136Z,99.90
2023-01-11T22:14:06.574Z,99.90
2023-01-11T22:16:33.744Z,99.90
2023-01-11T22:19:01.271Z,99.90
2023-01-11T22:21:28.290Z,99.90
2023-01-11T22:23:56.092Z,99.90
2023-01-11T22:26:23.623Z,99.90
2023-01-11T22:29:12.777Z,99.90
2023-01-11T22:32:01.375Z,99.90
2023-01-11T22:34:28.302Z,99.90
2023-01-11T22:36:55.353Z,99.90
2023-01-11T22:39:22.445Z,99.90
2023-01-11T22:41:49.843Z,99.90
2023-01-11T22:44:17.097Z,99.90
2023-01-11T22:46:44.465Z,99.90
2023-01-11T22:49:11.648Z,99.90
2023-01-11T22:51:39.636Z,99.90
2023-01-11T22:54:06.549Z,99.90
2023-01-11T22:56:33.497Z,99.90
2023-01-11T22:59:00.467Z,99.90
2023-01-11T23:01:27.423Z,99.90
2023-01-11T23:03:54.874Z,99.90
2023-01-11T23:06:23.867Z,99.90
2023-01-11T23:08:50.878Z,99.90
2023-01-11T23:11:37.782Z,99.90
2023-01-11T23:14:05.690Z,99.90
2023-01-11T23:16:32.859Z,99.90
2023-01-11T23:19:00.158Z,99.90
2023-01-11T23:21:27.121Z,99.90
2023-01-11T23:23:54.288Z,99.90
2023-01-11T23:26:21.547Z,99.90
2023-01-11T23:28:49.188Z,99.90
2023-01-11T23:31:23.163Z,99.90
2023-01-11T23:33:51.309Z,99.90
2023-01-11T23:36:19.534Z,99.90
2023-01-11T23:38:46.527Z,99.90
2023-01-11T23:41:35.974Z,99.90
2023-01-11T23:44:06.775Z,99.90
2023-01-11T23:46:52.245Z,99.90
2023-01-11T23:49:19.215Z,99.90
2023-01-11T23:51:46.384Z,99.90
2023-01-11T23:54:13.381Z,99.90
2023-01-11T23:56:40.401Z,99.90
2023-01-11T23:59:07.715Z,99.90
